Lampedusa Airport LICD

Flugplatz Daten

Name: Lampedusa Airport

Ident: LICD

Lat: 35,4978981

Long: 12,61810017

Platzhöhe: 70 ft

IataCode: LMP

City: Lampedusa

Metar

2021/12/04 00:20
LICD 040020Z AUTO 32017KT 9999 BKN031 BKN056 12/07 Q1013

Taf

2021/12/03 00:21
TAF LICD 032300Z 0400/0424 33020G30KT 9999 SCT030
TEMPO 0400/0408 4000 TSRA
BECMG 0416/0418 33018KT
TEMPO 0421/0424 4000 SHRA
Gewünschte Webcam nicht vorhanden? Dann fügen Sie eine hinzu. Sie wird dann so schnell wie möglich freigeschaltet
Url: Title: